Time;durP1;ratioP1;P1;durP2;ratioP2;P2;SDS_P1;SDS_P2;PMS_P1;PMS_P2;Temp;Humidity;BMP_temperature;BMP_pressure;BME280_temperature;BME280_humidity;BME280_pressure;Samples;Min_cycle;Max_cycle;Signal;HPM_P1;HPM_P2
2021/09/29 00:01:00;;;;;;;19.10;15.75;;;27.00;99.90;;;;;;4150301;28;20092;-70
2021/09/29 00:03:05;;;;;;;19.70;11.25;;;27.00;99.90;;;;;;4140081;28;20512;-70
2021/09/29 00:05:10;;;;;;;16.42;11.23;;;27.00;99.90;;;;;;4149432;28;20493;-69
2021/09/29 00:07:16;;;;;;;14.02;9.95;;;27.10;99.90;;;;;;4170176;28;20530;-70
2021/09/29 00:09:22;;;;;;;16.77;8.90;;;27.10;99.90;;;;;;4153323;28;20394;-71
2021/09/29 00:11:31;;;;;;;10.30;8.25;;;27.20;99.90;;;;;;4149318;28;20542;-70
2021/09/29 00:13:36;;;;;;;11.82;8.10;;;27.30;99.90;;;;;;4147546;28;20050;-70
2021/09/29 00:15:40;;;;;;;12.60;7.38;;;27.30;99.90;;;;;;4150816;28;20436;-70
2021/09/29 00:17:46;;;;;;;11.57;7.07;;;27.30;99.90;;;;;;4150399;28;20041;-70
2021/09/29 00:19:50;;;;;;;9.88;6.55;;;27.30;99.90;;;;;;4166848;28;20049;-70
2021/09/29 00:21:55;;;;;;;10.77;6.45;;;27.30;99.90;;;;;;4153359;28;20046;-71
2021/09/29 00:23:59;;;;;;;11.10;6.53;;;27.40;99.90;;;;;;4142523;28;20053;-70
2021/09/29 00:26:04;;;;;;;9.88;6.40;;;27.40;99.90;;;;;;4151061;28;20053;-72
2021/09/29 00:28:08;;;;;;;8.48;5.93;;;27.40;99.90;;;;;;4167652;28;20041;-71
2021/09/29 00:30:13;;;;;;;11.13;7.05;;;27.30;99.90;;;;;;4159927;28;20057;-70
2021/09/29 00:32:19;;;;;;;11.57;6.30;;;27.30;99.90;;;;;;4171169;28;20048;-70
2021/09/29 00:34:33;;;;;;;12.57;6.32;;;27.30;99.90;;;;;;4150680;28;20069;-70
2021/09/29 00:36:42;;;;;;;9.52;6.10;;;27.40;99.90;;;;;;4152257;28;20041;-70
2021/09/29 00:38:47;;;;;;;11.65;6.35;;;27.50;99.90;;;;;;4166698;28;20447;-70
2021/09/29 00:40:52;;;;;;;10.38;6.32;;;27.40;99.90;;;;;;4150930;28;20060;-70
2021/09/29 00:42:57;;;;;;;8.60;5.57;;;27.40;99.90;;;;;;4146780;28;20100;-69
2021/09/29 00:45:01;;;;;;;11.48;6.07;;;27.50;99.90;;;;;;4156513;28;20037;-69
2021/09/29 00:47:06;;;;;;;7.43;5.38;;;27.50;99.90;;;;;;4159805;28;20111;-69
2021/09/29 00:49:12;;;;;;;11.23;5.63;;;27.50;99.90;;;;;;4158002;28;20460;-69
2021/09/29 00:51:16;;;;;;;8.98;5.47;;;27.70;99.90;;;;;;4158685;28;20454;-70
2021/09/29 00:53:21;;;;;;;9.85;5.55;;;27.70;99.90;;;;;;4153123;28;20072;-70
2021/09/29 00:55:26;;;;;;;10.32;5.55;;;27.80;99.90;;;;;;4151415;28;20069;-69
2021/09/29 00:57:31;;;;;;;11.10;6.10;;;27.80;99.90;;;;;;4162579;28;20049;-69
2021/09/29 00:59:36;;;;;;;11.00;6.13;;;27.80;99.90;;;;;;4162243;28;20049;-70
2021/09/29 01:01:41;;;;;;;11.13;6.65;;;27.80;99.90;;;;;;4161523;28;20052;-70
2021/09/29 01:03:48;;;;;;;9.60;6.50;;;27.90;99.90;;;;;;4151933;28;20045;-69
2021/09/29 01:06:02;;;;;;;10.85;6.60;;;28.00;99.90;;;;;;4157156;28;20259;-70
2021/09/29 01:08:14;;;;;;;8.13;6.10;;;28.00;99.90;;;;;;4175094;28;20055;-70
2021/09/29 01:10:32;;;;;;;8.23;6.30;;;28.00;99.90;;;;;;4158544;28;20550;-71
2021/09/29 01:12:49;;;;;;;10.57;5.93;;;28.10;99.90;;;;;;4152908;28;20064;-70
2021/09/29 01:14:57;;;;;;;10.80;5.55;;;28.20;99.90;;;;;;4144331;28;20042;-70
2021/09/29 01:17:02;;;;;;;8.23;5.22;;;28.30;99.90;;;;;;4159676;28;20037;-70
2021/09/29 01:19:30;;;;;;;8.52;5.57;;;28.30;99.90;;;;;;4157539;28;20049;-69
2021/09/29 01:21:38;;;;;;;9.07;5.43;;;28.30;99.90;;;;;;4152633;28;20087;-70
2021/09/29 01:24:05;;;;;;;8.10;5.80;;;28.40;99.90;;;;;;4148201;28;20041;-69
2021/09/29 01:26:14;;;;;;;9.27;6.22;;;28.40;99.90;;;;;;4140626;28;20083;-70
2021/09/29 01:28:27;;;;;;;8.05;6.07;;;28.40;99.90;;;;;;4143263;28;20072;-70
2021/09/29 01:30:33;;;;;;;7.80;5.77;;;28.30;99.90;;;;;;4156944;28;20223;-70
2021/09/29 01:32:39;;;;;;;9.40;5.45;;;28.30;99.90;;;;;;4137754;28;20045;-70
2021/09/29 01:34:44;;;;;;;6.57;5.15;;;28.30;99.90;;;;;;4138722;28;20477;-70
2021/09/29 01:36:49;;;;;;;6.93;5.65;;;28.40;99.90;;;;;;4139034;28;20100;-70
2021/09/29 01:38:57;;;;;;;6.50;5.32;;;28.50;99.90;;;;;;4141219;28;20092;-69
2021/09/29 01:41:02;;;;;;;6.07;4.95;;;28.50;99.90;;;;;;4158198;28;20057;-70
2021/09/29 01:43:07;;;;;;;6.80;4.72;;;28.60;99.90;;;;;;4132494;28;20045;-69
2021/09/29 01:45:12;;;;;;;5.97;4.80;;;28.60;99.90;;;;;;4138495;28;20092;-69
2021/09/29 01:47:17;;;;;;;9.38;5.30;;;28.60;99.90;;;;;;4139415;28;20071;-69
2021/09/29 01:49:36;;;;;;;5.47;4.75;;;28.70;99.90;;;;;;4159478;28;20053;-70
2021/09/29 01:51:45;;;;;;;5.47;4.55;;;28.70;99.90;;;;;;4158097;28;20489;-70
2021/09/29 01:53:50;;;;;;;7.28;4.82;;;28.80;99.90;;;;;;4114220;28;20046;-69
2021/09/29 01:55:55;;;;;;;7.22;4.68;;;28.80;99.90;;;;;;4159100;28;20098;-71
2021/09/29 01:58:02;;;;;;;6.97;4.43;;;28.80;99.90;;;;;;4160646;28;20053;-71
2021/09/29 02:00:09;;;;;;;9.32;5.15;;;28.80;99.90;;;;;;4174533;28;20095;-69
2021/09/29 02:02:15;;;;;;;6.32;4.60;;;28.90;99.90;;;;;;4155345;28;20037;-68
2021/09/29 02:04:20;;;;;;;5.60;4.35;;;28.90;99.90;;;;;;4135083;28;20439;-69
2021/09/29 02:06:25;;;;;;;10.15;5.10;;;29.00;99.90;;;;;;4158025;28;20455;-69
2021/09/29 02:08:29;;;;;;;9.70;4.80;;;29.00;99.90;;;;;;4158882;28;20058;-69
2021/09/29 02:10:34;;;;;;;6.78;4.82;;;29.10;99.90;;;;;;4158379;28;20500;-69
2021/09/29 02:12:39;;;;;;;6.18;4.03;;;29.00;99.90;;;;;;4153535;28;20064;-68
2021/09/29 02:14:44;;;;;;;8.00;4.65;;;29.10;99.90;;;;;;4152810;28;20061;-69
2021/09/29 02:16:55;;;;;;;7.13;4.82;;;29.10;99.90;;;;;;4174357;28;20510;-68
2021/09/29 02:19:01;;;;;;;8.02;4.70;;;29.20;99.90;;;;;;4144299;28;20046;-68
2021/09/29 02:21:05;;;;;;;7.80;4.15;;;29.30;99.90;;;;;;4161231;28;20466;-69
2021/09/29 02:23:11;;;;;;;7.53;4.25;;;29.30;99.90;;;;;;4148821;28;20037;-70
2021/09/29 02:25:16;;;;;;;6.05;4.45;;;29.30;99.90;;;;;;4155700;28;20087;-69
2021/09/29 02:27:21;;;;;;;8.02;4.38;;;29.40;99.90;;;;;;4159033;28;20053;-69
2021/09/29 02:29:25;;;;;;;8.32;4.30;;;29.40;99.90;;;;;;4161409;28;20052;-69
2021/09/29 02:31:33;;;;;;;6.18;4.53;;;29.40;99.90;;;;;;4140432;28;20048;-69
2021/09/29 02:33:38;;;;;;;12.02;4.47;;;29.40;99.90;;;;;;4131327;28;20153;-69
2021/09/29 02:35:43;;;;;;;5.85;4.63;;;29.50;99.90;;;;;;4158246;28;20115;-69
2021/09/29 02:37:49;;;;;;;8.70;4.65;;;29.60;99.90;;;;;;4159220;28;20076;-70
2021/09/29 02:39:54;;;;;;;6.07;4.15;;;29.60;99.90;;;;;;4175411;28;20549;-68
2021/09/29 02:42:00;;;;;;;6.35;3.80;;;29.70;99.90;;;;;;4158491;28;20041;-71
2021/09/29 02:44:08;;;;;;;6.05;3.80;;;29.70;99.90;;;;;;4149326;28;20088;-69
2021/09/29 02:46:13;;;;;;;8.20;4.53;;;29.70;99.90;;;;;;4158257;28;20072;-70
2021/09/29 02:48:18;;;;;;;4.38;3.95;;;29.80;99.90;;;;;;4159411;28;20100;-70
2021/09/29 02:50:22;;;;;;;5.78;4.05;;;29.80;99.90;;;;;;4157187;28;20096;-69
2021/09/29 02:52:27;;;;;;;6.10;3.88;;;29.90;99.90;;;;;;4153869;28;20038;-69
2021/09/29 02:54:32;;;;;;;6.47;4.25;;;30.00;99.90;;;;;;4168158;28;20417;-69
2021/09/29 02:56:37;;;;;;;5.78;3.97;;;30.00;99.90;;;;;;4159291;28;20041;-69
2021/09/29 02:58:42;;;;;;;7.68;4.13;;;30.00;99.90;;;;;;4158532;28;20049;-69
2021/09/29 03:00:47;;;;;;;5.50;4.13;;;30.10;99.90;;;;;;4142578;28;20455;-69
2021/09/29 03:02:51;;;;;;;8.20;4.07;;;30.20;99.90;;;;;;4150431;28;20049;-69
2021/09/29 03:04:56;;;;;;;7.47;4.28;;;30.20;99.90;;;;;;4169047;28;20041;-69
2021/09/29 03:07:01;;;;;;;6.13;4.30;;;30.20;99.90;;;;;;4156820;28;20049;-69
2021/09/29 03:09:06;;;;;;;8.20;4.00;;;30.30;99.90;;;;;;4158598;28;20037;-69
2021/09/29 03:11:10;;;;;;;6.22;4.03;;;30.30;99.90;;;;;;4174910;28;20525;-68
2021/09/29 03:13:15;;;;;;;5.90;4.70;;;30.40;99.90;;;;;;4167009;28;20531;-68
2021/09/29 03:15:20;;;;;;;4.95;4.00;;;30.50;99.90;;;;;;4170541;28;20049;-69
2021/09/29 03:17:25;;;;;;;7.85;4.28;;;30.60;99.90;;;;;;4158262;28;20515;-69
2021/09/29 03:19:31;;;;;;;7.28;4.22;;;30.60;99.90;;;;;;4159243;28;20052;-68
2021/09/29 03:21:35;;;;;;;5.68;4.10;;;30.60;99.90;;;;;;4160154;28;20045;-69
2021/09/29 03:23:40;;;;;;;5.60;4.45;;;30.50;99.90;;;;;;4147186;28;20099;-69
2021/09/29 03:25:44;;;;;;;7.88;4.15;;;30.40;99.90;;;;;;4157899;28;20107;-69
2021/09/29 03:27:49;;;;;;;4.95;3.88;;;30.40;99.90;;;;;;4174014;28;20049;-69
2021/09/29 03:29:53;;;;;;;7.43;3.85;;;30.60;99.90;;;;;;4160560;28;20052;-69
2021/09/29 03:31:58;;;;;;;7.85;4.68;;;30.70;99.90;;;;;;4158948;28;20064;-69
2021/09/29 03:34:03;;;;;;;5.05;3.72;;;30.80;99.90;;;;;;4162139;28;20041;-70
2021/09/29 03:36:09;;;;;;;5.72;3.70;;;30.80;99.90;;;;;;4156925;28;20049;-69
2021/09/29 03:38:14;;;;;;;6.10;4.20;;;30.90;99.90;;;;;;4160385;28;20128;-69
2021/09/29 03:40:19;;;;;;;6.90;4.60;;;30.90;99.90;;;;;;4160347;28;20055;-71
2021/09/29 03:42:25;;;;;;;4.55;3.63;;;31.00;99.90;;;;;;4152266;28;20077;-70
2021/09/29 03:44:29;;;;;;;4.25;3.58;;;31.00;99.90;;;;;;4147742;28;20161;-70
2021/09/29 03:46:34;;;;;;;5.00;3.95;;;31.00;99.90;;;;;;4171778;28;20505;-69
2021/09/29 03:48:40;;;;;;;6.03;4.18;;;31.10;99.90;;;;;;4127043;28;20057;-70
2021/09/29 03:50:45;;;;;;;6.05;3.85;;;31.10;99.90;;;;;;4157733;28;20782;-70
2021/09/29 03:52:49;;;;;;;5.03;3.53;;;31.20;99.90;;;;;;4157092;28;20051;-70
2021/09/29 03:54:55;;;;;;;5.55;3.10;;;31.30;99.90;;;;;;4152382;28;20417;-68
2021/09/29 03:57:00;;;;;;;3.67;2.90;;;31.40;99.90;;;;;;4157641;28;20045;-68
2021/09/29 03:59:04;;;;;;;4.28;3.10;;;31.40;99.90;;;;;;4157421;28;20045;-68
2021/09/29 04:01:10;;;;;;;4.10;3.25;;;31.50;99.90;;;;;;4159263;28;20115;-68
2021/09/29 04:03:15;;;;;;;4.18;3.20;;;31.50;99.90;;;;;;4165636;28;20481;-70
2021/09/29 04:05:19;;;;;;;4.75;3.33;;;31.40;99.90;;;;;;4137581;28;20058;-71
2021/09/29 04:07:25;;;;;;;6.75;3.55;;;31.40;99.90;;;;;;4155199;28;20247;-69
2021/09/29 04:09:30;;;;;;;4.50;3.30;;;31.30;99.90;;;;;;4156184;28;20045;-71
2021/09/29 04:11:34;;;;;;;5.38;3.65;;;31.10;99.90;;;;;;4159471;28;20041;-70
2021/09/29 04:13:39;;;;;;;4.13;3.08;;;31.10;99.90;;;;;;4142006;28;20041;-71
2021/09/29 04:15:44;;;;;;;4.70;3.50;;;31.00;99.90;;;;;;4156905;28;20045;-70
2021/09/29 04:17:48;;;;;;;5.07;3.72;;;31.00;99.90;;;;;;4158396;28;20041;-70
2021/09/29 04:19:53;;;;;;;6.93;3.50;;;31.10;99.90;;;;;;4158700;28;20069;-70
2021/09/29 04:21:59;;;;;;;5.97;3.40;;;31.30;99.90;;;;;;4157661;28;20064;-70
2021/09/29 04:24:06;;;;;;;4.57;3.40;;;31.40;99.90;;;;;;4132858;28;20057;-70
2021/09/29 04:26:11;;;;;;;6.20;2.88;;;31.50;99.90;;;;;;4168461;28;20160;-71
2021/09/29 04:28:15;;;;;;;4.07;3.00;;;31.50;99.90;;;;;;4138934;28;20077;-70
2021/09/29 04:30:20;;;;;;;4.68;3.13;;;31.60;99.90;;;;;;4151462;28;20152;-70
2021/09/29 04:32:25;;;;;;;8.82;3.80;;;31.60;99.90;;;;;;4137875;28;20056;-70
2021/09/29 04:34:48;;;;;;;;;;;31.70;99.90;;;;;;4145637;28;20064;-70
2021/09/29 04:37:11;;;;;;;3.88;3.08;;;31.50;99.90;;;;;;4153565;28;19936;-71
2021/09/29 04:39:34;;;;;;;3.97;2.80;;;31.60;99.90;;;;;;4153587;28;20588;-70
2021/09/29 04:41:57;;;;;;;4.65;3.50;;;31.70;99.90;;;;;;4153464;28;20109;-71
2021/09/29 04:44:20;;;;;;;4.00;3.13;;;31.60;99.90;;;;;;4149709;28;20107;-71
2021/09/29 04:46:43;;;;;;;4.43;3.13;;;31.70;99.90;;;;;;4156033;28;20052;-71
2021/09/29 04:49:06;;;;;;;4.80;3.20;;;31.80;99.90;;;;;;4155294;28;20129;-72
2021/09/29 04:51:29;;;;;;;5.60;3.30;;;31.80;99.90;;;;;;4153083;28;20534;-71
2021/09/29 04:53:52;;;;;;;;;;;31.80;99.90;;;;;;4140482;28;20052;-72
2021/09/29 04:56:14;;;;;;;5.93;2.70;;;31.80;99.90;;;;;;4157721;28;20036;-71
2021/09/29 04:58:38;;;;;;;5.03;3.33;;;31.90;99.90;;;;;;4151277;28;20062;-69
2021/09/29 05:01:00;;;;;;;5.30;3.30;;;32.00;99.90;;;;;;4156440;28;20060;-69
2021/09/29 05:03:23;;;;;;;3.90;3.03;;;32.10;99.90;;;;;;4141482;28;20064;-70
2021/09/29 05:05:47;;;;;;;5.75;2.72;;;32.20;99.90;;;;;;4158571;28;20100;-70
2021/09/29 05:08:09;;;;;;;5.47;2.90;;;32.20;99.90;;;;;;4158063;28;20056;-70
2021/09/29 05:11:01;;;;;;;6.07;3.00;;;32.20;99.90;;;;;;4139029;28;20163;-71
2021/09/29 05:13:30;;;;;;;8.82;3.20;;;32.20;99.90;;;;;;4126665;28;20060;-70
2021/09/29 05:15:53;;;;;;;4.65;2.90;;;32.30;99.90;;;;;;4104649;28;20136;-72
2021/09/29 05:18:38;;;;;;;4.15;2.80;;;32.30;99.90;;;;;;4121951;28;20061;-72
2021/09/29 05:21:43;;;;;;;3.33;2.60;;;32.30;99.90;;;;;;4058063;29;20051;-71
2021/09/29 05:24:06;;;;;;;3.33;2.78;;;32.40;99.90;;;;;;4034877;29;20120;-71
2021/09/29 05:26:35;;;;;;;3.40;2.55;;;32.40;99.90;;;;;;4034255;29;20092;-69
2021/09/29 05:29:18;;;;;;;3.20;2.70;;;32.50;99.90;;;;;;4024348;29;20060;-70
2021/09/29 05:32:25;;;;;;;4.38;2.90;;;32.60;99.90;;;;;;4001400;29;20049;-71
2021/09/29 05:35:28;;;;;;;4.65;3.00;;;32.60;99.90;;;;;;3978312;29;20060;-71
2021/09/29 05:38:07;;;;;;;4.90;2.85;;;32.60;99.90;;;;;;3927941;30;20066;-71
2021/09/29 05:40:33;;;;;;;6.38;5.13;;;32.60;99.90;;;;;;3910881;30;20063;-71
2021/09/29 05:44:12;;;;;;;9.60;5.45;;;32.70;99.90;;;;;;3946181;29;20054;-71
2021/09/29 05:46:59;;;;;;;7.60;6.15;;;32.80;99.90;;;;;;3954914;30;20121;-71
2021/09/29 05:49:38;;;;;;;7.88;5.63;;;32.90;99.90;;;;;;3926933;30;20094;-71
2021/09/29 05:52:11;;;;;;;9.65;5.82;;;32.90;99.90;;;;;;3930940;30;20628;-71
2021/09/29 05:54:57;;;;;;;8.90;5.68;;;33.00;99.90;;;;;;3920244;30;20066;-71
2021/09/29 05:57:32;;;;;;;7.72;5.80;;;33.00;99.90;;;;;;3096024;30;10000659;-71
2021/09/29 06:00:25;;;;;;;6.53;4.60;;;33.00;99.70;;;;;;3953262;29;20074;-71
